Time;durP1;ratioP1;P1;durP2;ratioP2;P2;SDS_P1;SDS_P2;PMS_P1;PMS_P2;Temp;Humidity;BMP_temperature;BMP_pressure;BME280_temperature;BME280_humidity;BME280_pressure;Samples;Min_cycle;Max_cycle;Signal;HPM_P1;HPM_P2
2021/03/03 14:55:37;;;;;;;32.30;17.67;;;5.40;77.00;;;;;;5090604;28;20367;-91
2021/03/03 14:58:02;;;;;;;44.25;22.05;;;5.20;78.30;;;;;;5089215;28;20024;-90
2021/03/03 15:00:29;;;;;;;23.75;13.25;;;5.20;79.20;;;;;;5089186;28;20032;-89
2021/03/03 15:02:55;;;;;;;17.67;11.48;;;5.20;79.70;;;;;;5089218;28;20055;-89
2021/03/03 15:05:21;;;;;;;14.73;9.38;;;5.10;79.80;;;;;;5089290;28;20025;-90
2021/03/03 15:07:47;;;;;;;16.48;10.20;;;5.10;79.80;;;;;;5089226;28;20032;-90
2021/03/03 15:10:13;;;;;;;10.70;7.88;;;5.10;80.00;;;;;;5089277;28;20047;-90
2021/03/03 15:12:39;;;;;;;12.10;7.03;;;5.00;79.90;;;;;;5089043;28;20065;-90
2021/03/03 15:15:05;;;;;;;17.45;9.05;;;5.00;80.20;;;;;;5088732;28;20020;-91
2021/03/03 15:17:31;;;;;;;14.88;8.98;;;5.00;80.30;;;;;;5089314;28;20355;-90
2021/03/03 15:19:57;;;;;;;14.35;9.15;;;4.90;80.50;;;;;;5088547;28;20035;-90
2021/03/03 15:22:22;;;;;;;13.07;8.95;;;4.90;80.50;;;;;;5088604;28;20024;-90
2021/03/03 15:24:48;;;;;;;18.42;10.82;;;4.80;80.70;;;;;;5088448;28;20024;-90
2021/03/03 15:27:14;;;;;;;24.25;15.50;;;4.80;80.90;;;;;;5088697;28;20024;-91
2021/03/03 15:29:40;;;;;;;33.00;21.48;;;4.70;81.00;;;;;;5088476;28;20032;-90
2021/03/03 15:32:06;;;;;;;27.63;16.20;;;4.70;81.10;;;;;;5088674;28;20362;-91
2021/03/03 15:34:32;;;;;;;73.20;38.50;;;4.60;81.70;;;;;;5088437;28;20021;-91
2021/03/03 15:36:58;;;;;;;46.20;26.98;;;4.60;81.70;;;;;;5090243;28;20458;-91
2021/03/03 15:39:24;;;;;;;82.32;39.13;;;4.50;81.70;;;;;;5089994;28;20024;-91
2021/03/03 15:41:52;;;;;;;39.33;21.60;;;4.50;82.00;;;;;;5090229;28;20031;-91
2021/03/03 15:44:18;;;;;;;24.30;15.60;;;4.40;82.30;;;;;;5090098;28;20024;-91
2021/03/03 15:46:44;;;;;;;17.33;13.27;;;4.40;82.40;;;;;;5089994;28;20024;-91
2021/03/03 15:49:09;;;;;;;19.23;12.77;;;4.30;82.60;;;;;;5089733;28;20509;-91
2021/03/03 15:51:35;;;;;;;27.27;18.02;;;4.30;82.90;;;;;;5090281;28;20047;-91
2021/03/03 15:54:01;;;;;;;30.85;20.08;;;4.20;83.00;;;;;;5088933;28;20048;-91
2021/03/03 15:56:27;;;;;;;40.05;23.02;;;4.10;83.20;;;;;;5097800;28;20044;-92
2021/03/03 15:58:53;;;;;;;42.75;22.95;;;4.10;83.40;;;;;;5099756;28;20028;-91
2021/03/03 16:01:18;;;;;;;33.17;18.70;;;4.00;83.60;;;;;;5089823;28;20020;-91
2021/03/03 16:03:44;;;;;;;27.90;17.20;;;3.90;84.40;;;;;;5089878;28;20029;-91
2021/03/03 16:06:10;;;;;;;33.00;18.23;;;3.90;84.00;;;;;;5076640;28;20025;-91
2021/03/03 16:08:35;;;;;;;33.25;19.58;;;3.80;84.30;;;;;;5075824;28;20082;-92
2021/03/03 16:11:01;;;;;;;38.90;22.42;;;3.80;84.50;;;;;;5075958;28;20040;-92
2021/03/03 16:13:27;;;;;;;38.03;22.17;;;3.70;84.70;;;;;;5074915;28;20039;-91
2021/03/03 16:15:53;;;;;;;39.05;23.77;;;3.60;84.90;;;;;;5075891;28;20031;-91
2021/03/03 16:18:18;;;;;;;39.67;24.60;;;3.60;85.20;;;;;;5075362;28;20402;-92
2021/03/03 16:20:44;;;;;;;32.95;19.90;;;3.50;85.30;;;;;;5075602;28;20027;-91
2021/03/03 16:23:10;;;;;;;37.80;21.15;;;3.40;85.60;;;;;;5075754;28;20059;-91
2021/03/03 16:25:36;;;;;;;37.53;23.17;;;3.40;85.80;;;;;;5075548;28;20063;-92
2021/03/03 16:28:02;;;;;;;33.10;18.77;;;3.40;85.90;;;;;;5073066;28;20025;-91
2021/03/03 16:30:27;;;;;;;31.33;17.30;;;3.40;86.10;;;;;;5074770;28;20024;-91
2021/03/03 16:32:53;;;;;;;26.67;16.10;;;3.40;86.30;;;;;;5073279;28;20078;-91
2021/03/03 16:35:19;;;;;;;24.55;15.57;;;3.30;86.30;;;;;;5074636;28;20111;-95
2021/03/03 16:37:45;;;;;;;25.13;14.50;;;3.30;86.50;;;;;;5074508;28;20024;-93
2021/03/03 16:40:14;;;;;;;29.48;16.77;;;3.30;86.60;;;;;;5074008;28;20158;-89
2021/03/03 16:42:40;;;;;;;30.30;16.98;;;3.20;86.70;;;;;;5073164;28;20024;-93
2021/03/03 16:45:14;;;;;;;30.92;18.85;;;3.10;86.90;;;;;;5074069;28;20024;-93
2021/03/03 16:47:40;;;;;;;29.15;17.05;;;3.10;87.10;;;;;;5073322;28;20032;-93
2021/03/03 16:50:08;;;;;;;34.78;18.98;;;3.00;87.20;;;;;;5073537;28;20085;-93
2021/03/03 16:52:34;;;;;;;31.20;18.52;;;3.00;87.70;;;;;;5072810;28;20029;-93
2021/03/03 16:55:01;;;;;;;28.90;17.75;;;2.90;87.70;;;;;;5060918;28;20052;-91
2021/03/03 16:57:27;;;;;;;32.72;20.65;;;2.90;87.80;;;;;;5055846;28;20493;-93
2021/03/03 16:59:53;;;;;;;32.15;20.08;;;2.90;88.00;;;;;;5074167;28;20024;-93
2021/03/03 17:02:19;;;;;;;40.45;23.70;;;2.80;88.20;;;;;;5056654;28;20028;-92
2021/03/03 17:04:45;;;;;;;38.55;23.58;;;2.70;88.60;;;;;;5056203;28;20028;-92
2021/03/03 17:07:11;;;;;;;44.33;25.60;;;2.70;88.80;;;;;;5056354;28;20119;-92
2021/03/03 17:09:37;;;;;;;45.40;24.70;;;2.60;89.10;;;;;;5055607;28;20393;-93
2021/03/03 17:12:04;;;;;;;48.20;25.27;;;2.50;89.10;;;;;;5056037;28;20020;-92
2021/03/03 17:14:30;;;;;;;47.50;23.70;;;2.40;89.70;;;;;;5073768;28;20025;-92
2021/03/03 17:16:56;;;;;;;38.15;21.13;;;2.40;89.80;;;;;;5055088;28;20066;-93
2021/03/03 17:19:23;;;;;;;36.40;21.52;;;2.20;89.60;;;;;;5055856;28;20478;-92
2021/03/03 17:21:49;;;;;;;41.30;23.45;;;2.30;89.80;;;;;;5055898;28;20730;-92
2021/03/03 17:24:15;;;;;;;40.50;23.17;;;2.30;89.80;;;;;;5056815;28;20094;-92
2021/03/03 17:26:41;;;;;;;46.55;24.98;;;2.20;90.00;;;;;;5056836;28;20021;-91
2021/03/03 17:29:08;;;;;;;52.08;26.42;;;2.20;90.00;;;;;;5075358;28;20530;-91
2021/03/03 17:31:35;;;;;;;59.60;25.70;;;2.20;90.00;;;;;;5057426;28;20035;-96
2021/03/03 17:34:01;;;;;;;52.63;24.40;;;2.20;90.00;;;;;;5056927;28;20036;-90
2021/03/03 17:36:29;;;;;;;50.28;24.38;;;2.10;90.00;;;;;;5063233;28;20021;-94
2021/03/03 17:38:55;;;;;;;45.92;23.42;;;2.10;90.10;;;;;;5068733;28;20101;-94
2021/03/03 17:41:21;;;;;;;44.70;20.80;;;2.10;90.20;;;;;;5061393;28;20458;-94
2021/03/03 17:43:47;;;;;;;39.22;20.95;;;2.10;90.20;;;;;;5058511;28;20025;-91
2021/03/03 17:46:13;;;;;;;43.58;23.73;;;2.00;90.20;;;;;;5057268;28;20119;-93
2021/03/03 17:48:39;;;;;;;37.40;22.58;;;2.00;90.50;;;;;;5057169;28;20471;-92
2021/03/03 17:51:05;;;;;;;33.15;18.95;;;1.90;90.50;;;;;;5057160;28;20044;-96
2021/03/03 17:53:31;;;;;;;28.63;17.27;;;1.90;90.70;;;;;;5056639;28;20564;-93
2021/03/03 17:55:57;;;;;;;32.83;20.13;;;1.90;90.50;;;;;;5057204;28;20116;-94
2021/03/03 17:58:23;;;;;;;46.13;24.35;;;1.80;90.70;;;;;;5057329;28;20025;-93
2021/03/03 18:00:51;;;;;;;58.20;31.45;;;1.80;90.80;;;;;;5057554;28;20487;-95
2021/03/03 18:03:18;;;;;;;56.78;29.80;;;1.80;90.80;;;;;;5057129;28;20025;-94
2021/03/03 18:05:44;;;;;;;43.15;23.73;;;1.70;90.90;;;;;;5057352;28;20028;-96
2021/03/03 18:08:11;;;;;;;35.90;21.45;;;1.70;90.90;;;;;;5074969;28;20073;-94
2021/03/03 18:10:37;;;;;;;28.92;17.88;;;1.60;91.00;;;;;;5056988;28;20047;-96
2021/03/03 18:13:03;;;;;;;30.42;16.42;;;1.60;90.90;;;;;;5057239;28;20016;-95
2021/03/03 18:15:28;;;;;;;27.77;15.27;;;1.60;90.90;;;;;;5057184;28;20039;-95
2021/03/03 18:17:56;;;;;;;27.33;16.40;;;1.60;91.00;;;;;;5074792;28;20069;-94
2021/03/03 18:20:23;;;;;;;28.85;17.00;;;1.50;90.90;;;;;;5057402;28;20017;-95
2021/03/03 18:22:49;;;;;;;26.02;15.38;;;1.50;91.20;;;;;;5039306;28;20021;-95
2021/03/03 18:25:15;;;;;;;31.23;17.45;;;1.40;91.30;;;;;;5036875;28;20025;-92
2021/03/03 18:27:41;;;;;;;31.33;17.40;;;1.40;91.20;;;;;;5037572;28;20029;-92
2021/03/03 18:30:10;;;;;;;34.83;20.83;;;1.40;91.20;;;;;;5036732;28;20120;-92
2021/03/03 18:32:36;;;;;;;41.50;21.45;;;1.40;91.20;;;;;;5036448;28;20056;-93
2021/03/03 18:35:03;;;;;;;50.58;25.45;;;1.30;91.40;;;;;;5036835;28;20052;-92
2021/03/03 18:37:28;;;;;;;53.10;25.63;;;1.30;91.30;;;;;;5036648;28;20027;-93
2021/03/03 18:39:54;;;;;;;41.13;19.48;;;1.30;91.30;;;;;;5036925;28;20116;-94
2021/03/03 18:42:22;;;;;;;40.30;20.20;;;1.30;91.40;;;;;;5036652;28;20104;-94
2021/03/03 18:44:52;;;;;;;47.65;23.35;;;1.30;91.50;;;;;;5036294;28;20037;-93
2021/03/03 18:47:18;;;;;;;;;;;1.30;91.30;;;;;;5037215;28;20112;-92
2021/03/03 18:49:44;;;;;;;41.33;21.25;;;1.20;91.30;;;;;;5036719;28;19931;-92
2021/03/03 18:52:10;;;;;;;43.67;22.65;;;1.20;91.20;;;;;;5036552;28;20537;-94
2021/03/03 18:54:36;;;;;;;48.55;25.42;;;1.20;91.40;;;;;;5056657;28;20052;-92
2021/03/03 18:57:02;;;;;;;44.28;24.65;;;1.20;91.30;;;;;;5073267;28;20031;-93
2021/03/03 18:59:28;;;;;;;32.03;18.42;;;1.20;91.40;;;;;;5073285;28;20067;-93
2021/03/03 19:01:53;;;;;;;31.17;16.85;;;1.20;91.40;;;;;;5073436;28;20430;-93
2021/03/03 19:04:19;;;;;;;25.27;14.77;;;1.20;91.30;;;;;;5073178;28;20048;-94
2021/03/03 19:06:45;;;;;;;27.80;14.20;;;1.20;91.30;;;;;;5073144;28;20024;-93
2021/03/03 19:09:11;;;;;;;24.75;15.65;;;1.10;91.20;;;;;;5073104;28;20059;-94
2021/03/03 19:11:37;;;;;;;35.22;19.88;;;1.10;91.20;;;;;;5073308;28;20481;-92
2021/03/03 19:14:07;;;;;;;32.03;17.80;;;1.10;91.30;;;;;;5073527;28;20478;-93
2021/03/03 19:16:32;;;;;;;30.27;16.65;;;1.00;91.40;;;;;;5082834;28;20008;-94
2021/03/03 19:18:58;;;;;;;31.25;16.45;;;1.00;91.40;;;;;;5087170;28;20036;-96
2021/03/03 19:21:25;;;;;;;31.75;17.15;;;0.90;91.40;;;;;;5076482;28;20107;-95
2021/03/03 19:23:52;;;;;;;28.98;17.00;;;0.90;91.40;;;;;;5073448;28;20120;-96
2021/03/03 19:26:19;;;;;;;33.15;18.27;;;0.90;91.40;;;;;;5073419;28;20020;-96
2021/03/03 19:28:44;;;;;;;33.75;18.10;;;0.90;91.50;;;;;;5074111;28;20023;-96
2021/03/03 19:31:10;;;;;;;32.25;16.65;;;0.80;91.60;;;;;;5074329;28;20103;-96
2021/03/03 19:33:36;;;;;;;32.47;17.23;;;0.80;91.60;;;;;;5072850;28;20538;-96
2021/03/03 19:36:04;;;;;;;27.83;15.88;;;0.80;91.60;;;;;;5073309;28;20024;-96
2021/03/03 19:38:30;;;;;;;24.55;12.93;;;0.80;91.70;;;;;;5073122;28;20021;-96
2021/03/03 19:40:56;;;;;;;20.33;12.27;;;0.80;91.90;;;;;;5074884;28;20116;-96
2021/03/03 19:43:22;;;;;;;20.88;12.88;;;0.70;91.80;;;;;;5077745;28;20063;-96
2021/03/03 19:45:48;;;;;;;22.63;12.85;;;0.70;91.80;;;;;;5079408;28;20445;-96
2021/03/03 19:48:14;;;;;;;22.88;12.73;;;0.70;92.40;;;;;;5080586;28;20078;-96
2021/03/03 19:50:40;;;;;;;22.55;12.18;;;0.60;92.00;;;;;;5080157;28;20020;-96
2021/03/03 19:53:06;;;;;;;21.92;11.35;;;0.60;91.90;;;;;;5078721;28;20028;-96
2021/03/03 19:55:32;;;;;;;28.60;14.43;;;0.60;92.00;;;;;;5080263;28;20049;-96
2021/03/03 19:57:58;;;;;;;25.02;14.27;;;0.60;92.00;;;;;;5085007;28;20024;-96
2021/03/03 20:00:28;;;;;;;29.85;15.90;;;0.60;92.20;;;;;;5091343;28;20028;-96
2021/03/03 20:02:54;;;;;;;28.10;14.73;;;0.50;92.20;;;;;;5067265;28;20039;-96
2021/03/03 20:05:20;;;;;;;34.70;18.63;;;0.40;92.20;;;;;;5087887;28;20024;-96
2021/03/03 20:07:46;;;;;;;29.40;15.27;;;0.40;92.20;;;;;;5084124;28;20056;-96
2021/03/03 20:10:13;;;;;;;30.83;15.75;;;0.40;92.40;;;;;;5084178;28;20028;-96
2021/03/03 20:12:46;;;;;;;30.00;15.95;;;0.40;92.30;;;;;;5084755;28;20033;-96
2021/03/03 20:15:17;;;;;;;31.80;16.63;;;0.40;92.20;;;;;;5083660;28;20029;-96
2021/03/03 20:17:44;;;;;;;28.23;15.98;;;0.30;92.20;;;;;;5085092;28;20466;-96
2021/03/03 20:20:12;;;;;;;33.40;18.20;;;0.30;92.20;;;;;;5080976;28;20113;-96
2021/03/03 20:22:42;;;;;;;30.92;17.50;;;0.30;92.40;;;;;;5086876;28;20047;-96
2021/03/03 20:25:14;;;;;;;34.92;19.05;;;0.30;92.40;;;;;;5095400;28;20033;-96
2021/03/03 20:27:42;;;;;;;34.45;19.48;;;0.20;92.80;;;;;;5077819;28;20028;-96
2021/03/03 20:30:13;;;;;;;30.05;17.02;;;0.10;92.80;;;;;;5084841;28;20039;-96
2021/03/03 20:32:39;;;;;;;26.42;15.55;;;0.10;92.60;;;;;;5087089;28;20029;-96
2021/03/03 20:35:08;;;;;;;31.50;17.05;;;0.10;92.50;;;;;;5088444;28;20024;-96
2021/03/03 20:37:34;;;;;;;28.52;17.25;;;0.10;92.40;;;;;;5089779;28;20489;-96
2021/03/03 20:40:03;;;;;;;34.65;17.50;;;0.10;92.40;;;;;;5090291;28;20024;-96
2021/03/03 20:42:30;;;;;;;33.03;18.50;;;0.00;92.40;;;;;;5091391;28;20029;-96
2021/03/03 20:44:56;;;;;;;31.85;17.63;;;0.10;92.60;;;;;;5085492;28;20035;-96
2021/03/03 20:47:22;;;;;;;40.00;20.65;;;0.00;92.40;;;;;;5083089;28;20092;-96
2021/03/03 20:49:48;;;;;;;36.88;18.95;;;0.00;93.00;;;;;;5080471;28;20039;-96
2021/03/03 20:52:13;;;;;;;36.13;19.27;;;0.00;92.80;;;;;;5079632;28;20039;-96
2021/03/03 20:54:39;;;;;;;34.10;18.80;;;-0.10;93.10;;;;;;5080167;28;20049;-96
2021/03/03 20:57:06;;;;;;;28.17;16.48;;;-0.10;93.00;;;;;;5085935;28;20007;-95
2021/03/03 20:59:31;;;;;;;28.50;16.02;;;-0.10;92.80;;;;;;5086974;28;20032;-96
2021/03/03 21:01:57;;;;;;;33.35;18.35;;;-0.10;92.70;;;;;;5076103;28;20513;-96
2021/03/03 21:04:23;;;;;;;29.90;16.80;;;-0.10;92.80;;;;;;5075183;28;20039;-95
2021/03/03 21:06:48;;;;;;;30.95;16.95;;;-0.10;92.80;;;;;;5075058;28;20028;-96
2021/03/03 21:09:14;;;;;;;33.92;16.98;;;-0.10;92.90;;;;;;5075200;28;20028;-95
2021/03/03 21:11:40;;;;;;;31.40;18.23;;;-0.20;92.90;;;;;;5074952;28;20032;-96
2021/03/03 21:14:06;;;;;;;32.97;17.45;;;-0.20;93.10;;;;;;5074794;28;20025;-96
2021/03/03 21:16:32;;;;;;;29.70;17.05;;;-0.30;93.30;;;;;;5075040;28;20078;-96
2021/03/03 21:18:58;;;;;;;32.13;17.50;;;-0.30;93.00;;;;;;5074870;28;20050;-96
2021/03/03 21:21:23;;;;;;;36.58;17.83;;;-0.30;92.90;;;;;;5074918;28;20028;-96
2021/03/03 21:23:49;;;;;;;33.42;17.73;;;-0.30;92.80;;;;;;5074797;28;20391;-96
2021/03/03 21:26:15;;;;;;;32.08;17.15;;;-0.30;92.90;;;;;;5076143;28;20054;-94
2021/03/03 21:28:40;;;;;;;28.80;17.40;;;-0.30;93.00;;;;;;5075757;28;20166;-96
2021/03/03 21:31:06;;;;;;;31.60;16.55;;;-0.30;93.00;;;;;;5074576;28;20123;-96
2021/03/03 21:33:32;;;;;;;28.77;17.25;;;-0.40;93.00;;;;;;5074390;28;20056;-96
2021/03/03 21:35:58;;;;;;;29.83;18.13;;;-0.40;92.90;;;;;;5074460;28;20032;-96
2021/03/03 21:38:24;;;;;;;32.10;17.52;;;-0.40;92.90;;;;;;5074428;28;20024;-96
2021/03/03 21:40:50;;;;;;;31.40;16.77;;;-0.40;93.00;;;;;;5074260;28;20030;-95
2021/03/03 21:43:15;;;;;;;31.10;16.35;;;-0.40;93.10;;;;;;5074432;28;20471;-96
2021/03/03 21:45:41;;;;;;;32.28;17.33;;;-0.50;93.20;;;;;;5074521;28;20024;-95
2021/03/03 21:48:07;;;;;;;34.10;19.55;;;-0.50;93.00;;;;;;5074152;28;20478;-95
2021/03/03 21:50:33;;;;;;;33.78;18.40;;;-0.50;92.90;;;;;;5074206;28;20107;-96
2021/03/03 21:52:58;;;;;;;39.13;22.88;;;-0.50;93.10;;;;;;5074133;28;20471;-95
2021/03/03 21:55:28;;;;;;;36.42;19.77;;;-0.50;93.50;;;;;;5073959;28;20071;-95
2021/03/03 21:57:54;;;;;;;40.40;19.98;;;-0.60;93.80;;;;;;5074044;28;20082;-95
2021/03/03 22:00:21;;;;;;;31.67;18.15;;;-0.70;93.60;;;;;;5073944;28;20025;-95
2021/03/03 22:02:47;;;;;;;32.65;17.08;;;-0.70;93.40;;;;;;5073770;28;20048;-95
2021/03/03 22:05:14;;;;;;;27.83;14.10;;;-0.70;93.40;;;;;;5073748;28;20028;-95
2021/03/03 22:07:40;;;;;;;28.30;14.13;;;-0.70;93.40;;;;;;5073776;28;20032;-95
2021/03/03 22:10:07;;;;;;;27.02;15.65;;;-0.70;93.40;;;;;;5073802;28;20516;-95
2021/03/03 22:12:32;;;;;;;32.60;17.25;;;-0.70;93.30;;;;;;5073660;28;20031;-95
2021/03/03 22:14:58;;;;;;;27.20;16.23;;;-0.60;93.30;;;;;;5073598;28;20115;-94
2021/03/03 22:17:24;;;;;;;25.33;14.82;;;-0.70;93.40;;;;;;5073529;28;20047;-94
2021/03/03 22:19:50;;;;;;;28.58;14.77;;;-0.60;93.50;;;;;;5073743;28;20017;-94
2021/03/03 22:22:15;;;;;;;29.38;17.15;;;-0.60;93.50;;;;;;5073665;28;20028;-94
2021/03/03 22:24:43;;;;;;;35.45;16.92;;;-0.60;93.90;;;;;;5073786;28;20032;-94
2021/03/03 22:27:09;;;;;;;30.83;16.70;;;-0.60;94.20;;;;;;5073516;28;20029;-94
2021/03/03 22:29:35;;;;;;;26.58;15.82;;;-0.60;94.10;;;;;;5073666;28;20029;-93
2021/03/03 22:32:01;;;;;;;29.77;16.67;;;-0.60;93.80;;;;;;5073420;28;20381;-94
2021/03/03 22:34:26;;;;;;;28.05;15.43;;;-0.60;93.70;;;;;;5073483;28;20090;-94
2021/03/03 22:36:52;;;;;;;33.47;17.23;;;-0.60;93.60;;;;;;5081112;28;20531;-93
2021/03/03 22:39:19;;;;;;;32.75;17.42;;;-0.60;93.60;;;;;;5086866;28;20060;-94
2021/03/03 22:41:46;;;;;;;34.90;19.08;;;-0.60;93.60;;;;;;5074191;28;20359;-94
2021/03/03 22:44:11;;;;;;;34.17;17.85;;;-0.60;93.90;;;;;;5073313;28;20052;-93
2021/03/03 22:46:37;;;;;;;34.00;18.05;;;-0.70;93.60;;;;;;5073629;28;20056;-94
2021/03/03 22:49:04;;;;;;;30.58;16.08;;;-0.70;93.80;;;;;;5073364;28;20029;-93
2021/03/03 22:51:30;;;;;;;29.13;16.23;;;-0.60;93.60;;;;;;5073163;28;20032;-93
2021/03/03 22:53:56;;;;;;;30.45;18.00;;;-0.60;93.60;;;;;;5072827;28;20049;-94
2021/03/03 22:56:22;;;;;;;30.30;17.00;;;-0.70;93.80;;;;;;5072983;28;20027;-94
2021/03/03 22:58:48;;;;;;;26.13;16.15;;;-0.70;93.60;;;;;;5073349;28;20466;-94
2021/03/03 23:01:13;;;;;;;29.50;16.48;;;-0.70;93.70;;;;;;5073310;28;20103;-93
2021/03/03 23:03:39;;;;;;;28.73;16.13;;;-0.70;93.70;;;;;;5073014;28;20020;-93
2021/03/03 23:06:06;;;;;;;27.85;15.85;;;-0.70;93.70;;;;;;5073140;28;20440;-94
2021/03/03 23:08:32;;;;;;;31.58;17.42;;;-0.80;93.60;;;;;;5072975;28;20363;-94
2021/03/03 23:10:58;;;;;;;26.50;15.68;;;-0.80;94.10;;;;;;5073000;28;20021;-93
2021/03/03 23:13:24;;;;;;;27.85;16.15;;;-0.90;93.80;;;;;;5072800;28;20021;-94
2021/03/03 23:15:50;;;;;;;34.50;19.63;;;-0.80;93.70;;;;;;5074334;28;20055;-94
2021/03/03 23:18:18;;;;;;;26.27;15.48;;;-0.90;94.40;;;;;;5076831;28;20048;-93
2021/03/03 23:20:45;;;;;;;29.08;15.35;;;-1.00;93.90;;;;;;5076790;28;20048;-93
2021/03/03 23:23:12;;;;;;;32.08;16.13;;;-1.00;93.80;;;;;;5076625;28;20070;-93
2021/03/03 23:25:39;;;;;;;27.75;15.27;;;-1.00;93.90;;;;;;5076735;28;20029;-93
2021/03/03 23:28:10;;;;;;;28.10;15.68;;;-1.00;94.30;;;;;;5076709;28;20035;-93
2021/03/03 23:30:51;;;;;;;31.25;16.50;;;-1.00;93.80;;;;;;5076341;28;20500;-93
2021/03/03 23:33:17;;;;;;;30.45;16.23;;;-1.00;94.10;;;;;;5076239;28;20039;-93
2021/03/03 23:35:42;;;;;;;35.03;18.52;;;-1.10;94.20;;;;;;5076484;28;20463;-93
2021/03/03 23:38:09;;;;;;;28.17;15.50;;;-1.10;94.30;;;;;;5076785;28;20020;-93
2021/03/03 23:40:35;;;;;;;32.20;17.42;;;-1.10;94.20;;;;;;5076745;28;20028;-93
2021/03/03 23:43:01;;;;;;;30.67;18.20;;;-1.10;94.30;;;;;;5076707;28;20066;-92
2021/03/03 23:45:29;;;;;;;30.17;17.65;;;-1.10;94.40;;;;;;5076706;28;20391;-93
2021/03/03 23:47:56;;;;;;;28.45;16.50;;;-1.10;94.20;;;;;;5076627;28;20162;-92
2021/03/03 23:50:23;;;;;;;29.20;15.35;;;-1.10;94.30;;;;;;5076311;28;20024;-93
2021/03/03 23:52:49;;;;;;;29.00;16.35;;;-1.10;94.20;;;;;;5075902;28;20079;-92
2021/03/03 23:55:15;;;;;;;33.67;16.73;;;-1.10;94.40;;;;;;5075753;28;20084;-93
2021/03/03 23:57:41;;;;;;;33.22;18.08;;;-1.10;94.50;;;;;;5076432;28;20025;-92
